sensor_id;sensor_type;location;lat;lon;timestamp;temperature;humidity
78438;SHT31;67736;51.978;5.656;2023-11-21T00:01:39;11.9;67.9
78438;SHT31;67736;51.978;5.656;2023-11-21T00:04:09;11.8;68.2
78438;SHT31;67736;51.978;5.656;2023-11-21T00:06:38;11.8;68.2
78438;SHT31;67736;51.978;5.656;2023-11-21T00:09:08;11.8;68.1
78438;SHT31;67736;51.978;5.656;2023-11-21T00:11:39;11.7;68.2
78438;SHT31;67736;51.978;5.656;2023-11-21T00:14:08;11.7;68.2
78438;SHT31;67736;51.978;5.656;2023-11-21T00:16:38;11.6;68.1
78438;SHT31;67736;51.978;5.656;2023-11-21T00:19:07;11.6;68.2
78438;SHT31;67736;51.978;5.656;2023-11-21T00:21:37;11.6;68.0
78438;SHT31;67736;51.978;5.656;2023-11-21T00:24:07;11.5;68.1
78438;SHT31;67736;51.978;5.656;2023-11-21T00:26:37;11.5;68.1
78438;SHT31;67736;51.978;5.656;2023-11-21T00:29:06;11.5;68.1
78438;SHT31;67736;51.978;5.656;2023-11-21T00:31:38;11.5;68.2
78438;SHT31;67736;51.978;5.656;2023-11-21T00:34:08;11.4;68.6
78438;SHT31;67736;51.978;5.656;2023-11-21T00:36:37;11.4;68.4
78438;SHT31;67736;51.978;5.656;2023-11-21T00:39:07;11.4;68.3
78438;SHT31;67736;51.978;5.656;2023-11-21T00:41:36;11.3;68.1
78438;SHT31;67736;51.978;5.656;2023-11-21T00:44:06;11.3;68.2
78438;SHT31;67736;51.978;5.656;2023-11-21T00:46:36;11.3;68.2
78438;SHT31;67736;51.978;5.656;2023-11-21T00:49:06;11.2;68.2
78438;SHT31;67736;51.978;5.656;2023-11-21T00:51:37;11.2;68.3
78438;SHT31;67736;51.978;5.656;2023-11-21T00:54:06;11.2;68.0
78438;SHT31;67736;51.978;5.656;2023-11-21T00:56:36;11.2;67.9
78438;SHT31;67736;51.978;5.656;2023-11-21T00:59:07;11.1;67.8
78438;SHT31;67736;51.978;5.656;2023-11-21T01:01:38;11.1;67.9
78438;SHT31;67736;51.978;5.656;2023-11-21T01:04:07;11.1;67.6
78438;SHT31;67736;51.978;5.656;2023-11-21T01:06:37;11.1;67.8
78438;SHT31;67736;51.978;5.656;2023-11-21T01:09:09;11.0;67.9
78438;SHT31;67736;51.978;5.656;2023-11-21T01:11:40;11.0;67.9
78438;SHT31;67736;51.978;5.656;2023-11-21T01:14:10;11.0;68.1
78438;SHT31;67736;51.978;5.656;2023-11-21T01:16:41;10.9;68.3
78438;SHT31;67736;51.978;5.656;2023-11-21T01:19:10;10.9;68.4
78438;SHT31;67736;51.978;5.656;2023-11-21T01:21:40;10.9;68.9
78438;SHT31;67736;51.978;5.656;2023-11-21T01:24:10;10.9;69.2
78438;SHT31;67736;51.978;5.656;2023-11-21T01:26:39;10.9;69.3
78438;SHT31;67736;51.978;5.656;2023-11-21T01:29:09;10.8;69.8
78438;SHT31;67736;51.978;5.656;2023-11-21T01:31:38;10.8;70.1
78438;SHT31;67736;51.978;5.656;2023-11-21T01:34:10;10.8;70.3
78438;SHT31;67736;51.978;5.656;2023-11-21T01:36:41;10.8;70.7
78438;SHT31;67736;51.978;5.656;2023-11-21T01:39:11;10.8;71.3
78438;SHT31;67736;51.978;5.656;2023-11-21T01:41:43;10.8;71.8
78438;SHT31;67736;51.978;5.656;2023-11-21T01:44:14;10.8;72.2
78438;SHT31;67736;51.978;5.656;2023-11-21T01:46:44;10.8;72.3
78438;SHT31;67736;51.978;5.656;2023-11-21T01:49:17;10.8;72.6
78438;SHT31;67736;51.978;5.656;2023-11-21T01:51:49;10.8;72.4
78438;SHT31;67736;51.978;5.656;2023-11-21T01:54:20;10.8;72.3
78438;SHT31;67736;51.978;5.656;2023-11-21T01:56:52;10.8;72.0
78438;SHT31;67736;51.978;5.656;2023-11-21T01:59:23;10.8;71.6
78438;SHT31;67736;51.978;5.656;2023-11-21T02:01:53;10.8;71.4
78438;SHT31;67736;51.978;5.656;2023-11-21T02:04:23;10.9;71.0
78438;SHT31;67736;51.978;5.656;2023-11-21T02:06:53;10.9;70.7
78438;SHT31;67736;51.978;5.656;2023-11-21T02:09:26;10.9;70.6
78438;SHT31;67736;51.978;5.656;2023-11-21T02:11:57;10.8;70.3
78438;SHT31;67736;51.978;5.656;2023-11-21T02:14:29;10.8;70.6
78438;SHT31;67736;51.978;5.656;2023-11-21T02:16:59;10.8;70.6
78438;SHT31;67736;51.978;5.656;2023-11-21T02:19:31;10.8;70.8
78438;SHT31;67736;51.978;5.656;2023-11-21T02:22:02;10.8;71.0
78438;SHT31;67736;51.978;5.656;2023-11-21T02:24:35;10.8;70.9
78438;SHT31;67736;51.978;5.656;2023-11-21T02:27:05;10.8;71.0
78438;SHT31;67736;51.978;5.656;2023-11-21T02:29:37;10.8;70.9
78438;SHT31;67736;51.978;5.656;2023-11-21T02:32:07;10.8;71.1
78438;SHT31;67736;51.978;5.656;2023-11-21T02:34:38;10.8;71.2
78438;SHT31;67736;51.978;5.656;2023-11-21T02:37:07;10.8;71.3
78438;SHT31;67736;51.978;5.656;2023-11-21T02:39:39;10.8;71.4
78438;SHT31;67736;51.978;5.656;2023-11-21T02:42:08;10.8;71.5
78438;SHT31;67736;51.978;5.656;2023-11-21T02:44:38;10.8;71.5
78438;SHT31;67736;51.978;5.656;2023-11-21T02:47:07;10.8;71.7
78438;SHT31;67736;51.978;5.656;2023-11-21T02:49:37;10.8;71.7
78438;SHT31;67736;51.978;5.656;2023-11-21T02:52:08;10.8;71.7
78438;SHT31;67736;51.978;5.656;2023-11-21T02:54:37;10.8;71.9
78438;SHT31;67736;51.978;5.656;2023-11-21T02:57:07;10.8;72.2
78438;SHT31;67736;51.978;5.656;2023-11-21T02:59:38;10.8;72.3
78438;SHT31;67736;51.978;5.656;2023-11-21T03:02:07;10.8;72.4
78438;SHT31;67736;51.978;5.656;2023-11-21T03:04:37;10.9;72.3
78438;SHT31;67736;51.978;5.656;2023-11-21T03:07:08;10.9;72.2
78438;SHT31;67736;51.978;5.656;2023-11-21T03:09:40;10.9;72.2
78438;SHT31;67736;51.978;5.656;2023-11-21T03:12:10;10.9;72.3
78438;SHT31;67736;51.978;5.656;2023-11-21T03:14:40;10.9;72.3
78438;SHT31;67736;51.978;5.656;2023-11-21T03:17:09;10.9;72.5
78438;SHT31;67736;51.978;5.656;2023-11-21T03:19:39;10.9;72.4
78438;SHT31;67736;51.978;5.656;2023-11-21T03:22:10;10.9;72.4
78438;SHT31;67736;51.978;5.656;2023-11-21T03:24:40;10.9;72.5
78438;SHT31;67736;51.978;5.656;2023-11-21T03:27:10;10.9;72.6
78438;SHT31;67736;51.978;5.656;2023-11-21T03:29:39;10.9;72.8
78438;SHT31;67736;51.978;5.656;2023-11-21T03:32:09;10.9;72.8
78438;SHT31;67736;51.978;5.656;2023-11-21T03:34:55;11.0;72.7
78438;SHT31;67736;51.978;5.656;2023-11-21T03:37:25;11.0;72.8
78438;SHT31;67736;51.978;5.656;2023-11-21T03:39:56;11.0;73.0
78438;SHT31;67736;51.978;5.656;2023-11-21T03:42:27;11.0;73.1
78438;SHT31;67736;51.978;5.656;2023-11-21T03:44:56;11.0;73.2
78438;SHT31;67736;51.978;5.656;2023-11-21T03:47:29;11.0;73.5
78438;SHT31;67736;51.978;5.656;2023-11-21T03:49:58;11.0;73.8
78438;SHT31;67736;51.978;5.656;2023-11-21T03:52:30;11.0;73.7
78438;SHT31;67736;51.978;5.656;2023-11-21T03:54:59;11.0;73.6
78438;SHT31;67736;51.978;5.656;2023-11-21T03:57:29;11.1;73.7
78438;SHT31;67736;51.978;5.656;2023-11-21T03:59:58;11.1;73.7
78438;SHT31;67736;51.978;5.656;2023-11-21T04:02:29;11.1;73.8
78438;SHT31;67736;51.978;5.656;2023-11-21T04:04:59;11.1;73.8
78438;SHT31;67736;51.978;5.656;2023-11-21T04:07:28;11.1;73.7
78438;SHT31;67736;51.978;5.656;2023-11-21T04:09:58;11.2;73.7
78438;SHT31;67736;51.978;5.656;2023-11-21T04:12:27;11.2;73.7
78438;SHT31;67736;51.978;5.656;2023-11-21T04:14:57;11.2;73.7
78438;SHT31;67736;51.978;5.656;2023-11-21T04:17:26;11.3;73.8
78438;SHT31;67736;51.978;5.656;2023-11-21T04:19:56;11.3;73.6
78438;SHT31;67736;51.978;5.656;2023-11-21T04:22:25;11.3;73.3
78438;SHT31;67736;51.978;5.656;2023-11-21T04:24:55;11.4;73.2
78438;SHT31;67736;51.978;5.656;2023-11-21T04:27:25;11.4;73.2
78438;SHT31;67736;51.978;5.656;2023-11-21T04:29:54;11.4;73.4
78438;SHT31;67736;51.978;5.656;2023-11-21T04:32:24;11.4;73.4
78438;SHT31;67736;51.978;5.656;2023-11-21T04:34:53;11.4;73.5
78438;SHT31;67736;51.978;5.656;2023-11-21T04:37:23;11.4;73.6
78438;SHT31;67736;51.978;5.656;2023-11-21T04:39:53;11.5;73.5
78438;SHT31;67736;51.978;5.656;2023-11-21T04:42:23;11.5;73.7
78438;SHT31;67736;51.978;5.656;2023-11-21T04:44:52;11.5;73.6
78438;SHT31;67736;51.978;5.656;2023-11-21T04:47:22;11.5;73.6
78438;SHT31;67736;51.978;5.656;2023-11-21T04:49:52;11.6;73.5
78438;SHT31;67736;51.978;5.656;2023-11-21T04:52:23;11.6;73.6
78438;SHT31;67736;51.978;5.656;2023-11-21T04:54:55;11.6;73.3
78438;SHT31;67736;51.978;5.656;2023-11-21T04:57:26;11.6;73.4
78438;SHT31;67736;51.978;5.656;2023-11-21T04:59:56;11.7;73.3
78438;SHT31;67736;51.978;5.656;2023-11-21T05:02:25;11.7;73.1
78438;SHT31;67736;51.978;5.656;2023-11-21T05:04:55;11.7;73.0
78438;SHT31;67736;51.978;5.656;2023-11-21T05:07:24;11.7;73.0
78438;SHT31;67736;51.978;5.656;2023-11-21T05:09:56;11.7;73.0
78438;SHT31;67736;51.978;5.656;2023-11-21T05:12:25;11.7;73.1
78438;SHT31;67736;51.978;5.656;2023-11-21T05:14:55;11.8;73.1
78438;SHT31;67736;51.978;5.656;2023-11-21T05:17:25;11.8;73.1
78438;SHT31;67736;51.978;5.656;2023-11-21T05:19:56;11.8;72.9
78438;SHT31;67736;51.978;5.656;2023-11-21T05:22:27;11.8;73.0
78438;SHT31;67736;51.978;5.656;2023-11-21T05:24:57;11.8;73.0
78438;SHT31;67736;51.978;5.656;2023-11-21T05:27:26;11.8;73.1
78438;SHT31;67736;51.978;5.656;2023-11-21T05:29:56;11.8;73.2
78438;SHT31;67736;51.978;5.656;2023-11-21T05:32:25;11.8;73.2
78438;SHT31;67736;51.978;5.656;2023-11-21T05:34:57;11.8;73.3
78438;SHT31;67736;51.978;5.656;2023-11-21T05:37:26;11.9;73.3
78438;SHT31;67736;51.978;5.656;2023-11-21T05:39:58;11.9;73.3
78438;SHT31;67736;51.978;5.656;2023-11-21T05:42:34;11.9;73.1
78438;SHT31;67736;51.978;5.656;2023-11-21T05:45:06;11.9;73.1
78438;SHT31;67736;51.978;5.656;2023-11-21T05:47:40;11.9;73.2
78438;SHT31;67736;51.978;5.656;2023-11-21T05:50:11;11.9;73.2
78438;SHT31;67736;51.978;5.656;2023-11-21T05:52:43;11.9;73.2
78438;SHT31;67736;51.978;5.656;2023-11-21T05:55:13;12.0;73.3
78438;SHT31;67736;51.978;5.656;2023-11-21T05:57:43;12.0;73.2
78438;SHT31;67736;51.978;5.656;2023-11-21T06:00:15;12.0;73.1
78438;SHT31;67736;51.978;5.656;2023-11-21T06:02:48;12.0;73.1
78438;SHT31;67736;51.978;5.656;2023-11-21T06:05:22;12.0;73.2
78438;SHT31;67736;51.978;5.656;2023-11-21T06:07:54;12.0;73.2
78438;SHT31;67736;51.978;5.656;2023-11-21T06:10:26;12.0;73.3
78438;SHT31;67736;51.978;5.656;2023-11-21T06:12:57;12.0;73.3
78438;SHT31;67736;51.978;5.656;2023-11-21T06:15:27;12.0;73.3
78438;SHT31;67736;51.978;5.656;2023-11-21T06:17:56;12.0;73.2
78438;SHT31;67736;51.978;5.656;2023-11-21T06:20:27;12.0;73.2
78438;SHT31;67736;51.978;5.656;2023-11-21T06:22:57;12.0;73.3
78438;SHT31;67736;51.978;5.656;2023-11-21T06:25:30;12.0;73.4
78438;SHT31;67736;51.978;5.656;2023-11-21T06:28:03;12.0;73.4
78438;SHT31;67736;51.978;5.656;2023-11-21T06:30:34;12.0;73.5
78438;SHT31;67736;51.978;5.656;2023-11-21T06:33:04;12.0;73.6
78438;SHT31;67736;51.978;5.656;2023-11-21T06:35:34;12.1;73.6
78438;SHT31;67736;51.978;5.656;2023-11-21T06:38:06;12.1;73.5
78438;SHT31;67736;51.978;5.656;2023-11-21T06:40:38;12.1;73.6
78438;SHT31;67736;51.978;5.656;2023-11-21T06:43:08;12.1;73.8
78438;SHT31;67736;51.978;5.656;2023-11-21T06:45:39;12.1;73.9
78438;SHT31;67736;51.978;5.656;2023-11-21T06:48:12;12.1;73.7
78438;SHT31;67736;51.978;5.656;2023-11-21T06:50:42;12.1;73.8
78438;SHT31;67736;51.978;5.656;2023-11-21T06:53:11;12.1;73.8
78438;SHT31;67736;51.978;5.656;2023-11-21T06:55:41;12.1;73.7
78438;SHT31;67736;51.978;5.656;2023-11-21T06:58:10;12.1;73.8
78438;SHT31;67736;51.978;5.656;2023-11-21T07:00:42;12.1;73.8
78438;SHT31;67736;51.978;5.656;2023-11-21T07:03:18;12.1;73.7
78438;SHT31;67736;51.978;5.656;2023-11-21T07:05:49;12.1;73.7
78438;SHT31;67736;51.978;5.656;2023-11-21T07:08:19;12.1;73.7
78438;SHT31;67736;51.978;5.656;2023-11-21T07:10:48;12.1;73.8
78438;SHT31;67736;51.978;5.656;2023-11-21T07:13:18;12.1;73.7
78438;SHT31;67736;51.978;5.656;2023-11-21T07:15:49;12.2;73.8
78438;SHT31;67736;51.978;5.656;2023-11-21T07:18:19;12.2;73.6
78438;SHT31;67736;51.978;5.656;2023-11-21T07:20:50;12.2;73.7
78438;SHT31;67736;51.978;5.656;2023-11-21T07:23:20;12.2;73.7
78438;SHT31;67736;51.978;5.656;2023-11-21T07:25:50;12.2;73.6
78438;SHT31;67736;51.978;5.656;2023-11-21T07:28:20;12.2;73.7
78438;SHT31;67736;51.978;5.656;2023-11-21T07:30:49;12.3;73.6
78438;SHT31;67736;51.978;5.656;2023-11-21T07:33:19;12.3;73.5
78438;SHT31;67736;51.978;5.656;2023-11-21T07:35:48;12.3;73.7
78438;SHT31;67736;51.978;5.656;2023-11-21T07:38:18;12.3;73.7
78438;SHT31;67736;51.978;5.656;2023-11-21T07:40:49;12.3;73.8
78438;SHT31;67736;51.978;5.656;2023-11-21T07:43:19;12.3;73.9
78438;SHT31;67736;51.978;5.656;2023-11-21T07:45:49;12.3;74.1
78438;SHT31;67736;51.978;5.656;2023-11-21T07:48:19;12.3;74.0
78438;SHT31;67736;51.978;5.656;2023-11-21T07:50:48;12.4;73.9
78438;SHT31;67736;51.978;5.656;2023-11-21T07:53:18;12.4;74.1
78438;SHT31;67736;51.978;5.656;2023-11-21T07:55:47;12.4;74.2
78438;SHT31;67736;51.978;5.656;2023-11-21T07:58:17;12.4;74.2
78438;SHT31;67736;51.978;5.656;2023-11-21T08:00:48;12.5;74.1
78438;SHT31;67736;51.978;5.656;2023-11-21T08:03:18;12.5;74.0
78438;SHT31;67736;51.978;5.656;2023-11-21T08:05:48;12.5;74.0
78438;SHT31;67736;51.978;5.656;2023-11-21T08:08:18;12.6;73.9
78438;SHT31;67736;51.978;5.656;2023-11-21T08:10:48;12.6;73.9
78438;SHT31;67736;51.978;5.656;2023-11-21T08:13:23;12.6;74.0
78438;SHT31;67736;51.978;5.656;2023-11-21T08:15:54;12.6;74.0
78438;SHT31;67736;51.978;5.656;2023-11-21T08:18:26;12.6;73.9
78438;SHT31;67736;51.978;5.656;2023-11-21T08:20:57;12.6;73.8
78438;SHT31;67736;51.978;5.656;2023-11-21T08:23:26;12.7;73.8
78438;SHT31;67736;51.978;5.656;2023-11-21T08:25:57;12.7;73.5
78438;SHT31;67736;51.978;5.656;2023-11-21T08:28:26;12.7;73.4
78438;SHT31;67736;51.978;5.656;2023-11-21T08:30:56;12.7;73.5
78438;SHT31;67736;51.978;5.656;2023-11-21T08:33:26;12.7;73.7
78438;SHT31;67736;51.978;5.656;2023-11-21T08:35:56;12.6;73.9
78438;SHT31;67736;51.978;5.656;2023-11-21T08:38:25;12.6;74.2
78438;SHT31;67736;51.978;5.656;2023-11-21T08:40:55;12.6;74.2
78438;SHT31;67736;51.978;5.656;2023-11-21T08:43:25;12.6;74.3
78438;SHT31;67736;51.978;5.656;2023-11-21T08:45:54;12.6;74.4
78438;SHT31;67736;51.978;5.656;2023-11-21T08:48:24;12.6;74.6
78438;SHT31;67736;51.978;5.656;2023-11-21T08:50:55;12.6;74.8
78438;SHT31;67736;51.978;5.656;2023-11-21T08:53:27;12.6;75.0
78438;SHT31;67736;51.978;5.656;2023-11-21T08:55:56;12.6;75.2
78438;SHT31;67736;51.978;5.656;2023-11-21T08:58:26;12.6;75.1
78438;SHT31;67736;51.978;5.656;2023-11-21T09:00:58;12.7;74.8
78438;SHT31;67736;51.978;5.656;2023-11-21T09:03:28;12.7;74.8
78438;SHT31;67736;51.978;5.656;2023-11-21T09:05:59;12.7;74.8
78438;SHT31;67736;51.978;5.656;2023-11-21T09:08:29;12.8;74.6
78438;SHT31;67736;51.978;5.656;2023-11-21T09:10:59;12.8;74.5
78438;SHT31;67736;51.978;5.656;2023-11-21T09:13:30;12.9;74.4
78438;SHT31;67736;51.978;5.656;2023-11-21T09:16:00;12.9;74.3
78438;SHT31;67736;51.978;5.656;2023-11-21T09:18:31;12.9;74.0
78438;SHT31;67736;51.978;5.656;2023-11-21T09:21:00;12.9;74.0
78438;SHT31;67736;51.978;5.656;2023-11-21T09:23:31;13.0;74.2
78438;SHT31;67736;51.978;5.656;2023-11-21T09:26:01;13.0;74.0
78438;SHT31;67736;51.978;5.656;2023-11-21T09:28:32;13.0;74.2
78438;SHT31;67736;51.978;5.656;2023-11-21T09:31:05;13.1;74.2
78438;SHT31;67736;51.978;5.656;2023-11-21T09:33:36;13.1;74.0
78438;SHT31;67736;51.978;5.656;2023-11-21T09:36:11;13.1;74.0
78438;SHT31;67736;51.978;5.656;2023-11-21T09:38:41;13.1;74.0
78438;SHT31;67736;51.978;5.656;2023-11-21T09:41:19;13.0;74.2
78438;SHT31;67736;51.978;5.656;2023-11-21T09:43:55;13.0;74.8
78438;SHT31;67736;51.978;5.656;2023-11-21T09:46:28;13.0;75.2
78438;SHT31;67736;51.978;5.656;2023-11-21T09:49:00;13.0;75.4
78438;SHT31;67736;51.978;5.656;2023-11-21T09:51:36;13.0;75.7
78438;SHT31;67736;51.978;5.656;2023-11-21T09:54:10;13.0;76.2
78438;SHT31;67736;51.978;5.656;2023-11-21T09:56:40;13.0;76.5
78438;SHT31;67736;51.978;5.656;2023-11-21T09:59:14;13.0;76.2
78438;SHT31;67736;51.978;5.656;2023-11-21T10:01:48;13.1;76.1
78438;SHT31;67736;51.978;5.656;2023-11-21T10:04:18;13.1;75.7
78438;SHT31;67736;51.978;5.656;2023-11-21T10:06:50;13.1;76.0
78438;SHT31;67736;51.978;5.656;2023-11-21T10:09:21;13.1;75.9
78438;SHT31;67736;51.978;5.656;2023-11-21T10:11:52;13.2;75.8
78438;SHT31;67736;51.978;5.656;2023-11-21T10:14:24;13.2;75.7
78438;SHT31;67736;51.978;5.656;2023-11-21T10:16:59;13.2;75.4
78438;SHT31;67736;51.978;5.656;2023-11-21T10:19:29;13.2;75.7
78438;SHT31;67736;51.978;5.656;2023-11-21T10:22:01;13.2;75.5
78438;SHT31;67736;51.978;5.656;2023-11-21T10:24:31;13.2;75.2
78438;SHT31;67736;51.978;5.656;2023-11-21T10:27:03;13.3;75.1
78438;SHT31;67736;51.978;5.656;2023-11-21T10:29:33;13.3;74.9
78438;SHT31;67736;51.978;5.656;2023-11-21T10:32:04;13.3;74.6
78438;SHT31;67736;51.978;5.656;2023-11-21T10:34:33;13.3;74.2
78438;SHT31;67736;51.978;5.656;2023-11-21T10:37:11;13.3;73.9
78438;SHT31;67736;51.978;5.656;2023-11-21T10:39:43;13.3;74.1
78438;SHT31;67736;51.978;5.656;2023-11-21T10:42:12;13.3;74.0
78438;SHT31;67736;51.978;5.656;2023-11-21T10:44:43;13.3;73.8
78438;SHT31;67736;51.978;5.656;2023-11-21T10:47:15;13.3;74.0
78438;SHT31;67736;51.978;5.656;2023-11-21T10:49:48;13.3;74.1
78438;SHT31;67736;51.978;5.656;2023-11-21T10:52:20;13.3;74.1
78438;SHT31;67736;51.978;5.656;2023-11-21T10:54:50;13.3;74.1
78438;SHT31;67736;51.978;5.656;2023-11-21T10:57:21;13.3;74.5
78438;SHT31;67736;51.978;5.656;2023-11-21T10:59:54;13.3;74.5
78438;SHT31;67736;51.978;5.656;2023-11-21T11:02:25;13.3;74.3
78438;SHT31;67736;51.978;5.656;2023-11-21T11:04:57;13.3;74.2
78438;SHT31;67736;51.978;5.656;2023-11-21T11:07:30;13.3;73.8
78438;SHT31;67736;51.978;5.656;2023-11-21T11:10:01;13.3;73.8
78438;SHT31;67736;51.978;5.656;2023-11-21T11:12:31;13.3;74.0
78438;SHT31;67736;51.978;5.656;2023-11-21T11:15:01;13.3;73.5
78438;SHT31;67736;51.978;5.656;2023-11-21T11:17:33;13.3;73.4
78438;SHT31;67736;51.978;5.656;2023-11-21T11:20:04;13.3;73.8
78438;SHT31;67736;51.978;5.656;2023-11-21T11:22:42;13.3;73.0
78438;SHT31;67736;51.978;5.656;2023-11-21T11:25:30;13.2;72.6
78438;SHT31;67736;51.978;5.656;2023-11-21T11:28:06;13.2;72.7
78438;SHT31;67736;51.978;5.656;2023-11-21T11:30:50;13.1;73.2
78438;SHT31;67736;51.978;5.656;2023-11-21T11:33:29;13.1;73.7
78438;SHT31;67736;51.978;5.656;2023-11-21T11:36:06;13.0;73.7
78438;SHT31;67736;51.978;5.656;2023-11-21T11:38:36;13.0;74.2
78438;SHT31;67736;51.978;5.656;2023-11-21T11:41:07;13.0;74.1
78438;SHT31;67736;51.978;5.656;2023-11-21T11:43:36;13.0;74.4
78438;SHT31;67736;51.978;5.656;2023-11-21T11:46:11;13.0;74.5
78438;SHT31;67736;51.978;5.656;2023-11-21T11:48:42;12.9;74.8
78438;SHT31;67736;51.978;5.656;2023-11-21T11:51:14;12.9;75.3
78438;SHT31;67736;51.978;5.656;2023-11-21T11:53:46;12.9;75.3
78438;SHT31;67736;51.978;5.656;2023-11-21T11:56:22;12.9;75.2
78438;SHT31;67736;51.978;5.656;2023-11-21T11:58:54;12.9;75.7
78438;SHT31;67736;51.978;5.656;2023-11-21T12:01:26;12.9;75.7
78438;SHT31;67736;51.978;5.656;2023-11-21T12:04:27;12.9;75.6
78438;SHT31;67736;51.978;5.656;2023-11-21T12:07:02;12.9;75.8
78438;SHT31;67736;51.978;5.656;2023-11-21T12:09:32;13.0;75.6
78438;SHT31;67736;51.978;5.656;2023-11-21T12:12:03;13.0;74.9
78438;SHT31;67736;51.978;5.656;2023-11-21T12:14:36;13.0;75.0
78438;SHT31;67736;51.978;5.656;2023-11-21T12:17:06;13.0;74.8
78438;SHT31;67736;51.978;5.656;2023-11-21T12:19:37;13.0;74.3
78438;SHT31;67736;51.978;5.656;2023-11-21T12:22:07;13.0;74.6
78438;SHT31;67736;51.978;5.656;2023-11-21T12:24:36;13.0;74.7
78438;SHT31;67736;51.978;5.656;2023-11-21T12:27:06;13.1;74.7
78438;SHT31;67736;51.978;5.656;2023-11-21T12:29:35;13.1;74.5
78438;SHT31;67736;51.978;5.656;2023-11-21T12:32:06;13.1;74.5
78438;SHT31;67736;51.978;5.656;2023-11-21T12:34:35;13.1;74.4
78438;SHT31;67736;51.978;5.656;2023-11-21T12:37:06;13.1;74.7
78438;SHT31;67736;51.978;5.656;2023-11-21T12:39:35;13.0;74.8
78438;SHT31;67736;51.978;5.656;2023-11-21T12:42:05;13.0;74.9
78438;SHT31;67736;51.978;5.656;2023-11-21T12:44:35;13.0;74.7
78438;SHT31;67736;51.978;5.656;2023-11-21T12:47:08;13.0;74.8
78438;SHT31;67736;51.978;5.656;2023-11-21T12:49:40;13.0;74.6
78438;SHT31;67736;51.978;5.656;2023-11-21T12:52:11;13.0;74.4
78438;SHT31;67736;51.978;5.656;2023-11-21T12:54:42;13.0;74.3
78438;SHT31;67736;51.978;5.656;2023-11-21T12:57:16;13.0;74.2
78438;SHT31;67736;51.978;5.656;2023-11-21T12:59:47;13.0;73.8
78438;SHT31;67736;51.978;5.656;2023-11-21T13:02:21;13.0;73.9
78438;SHT31;67736;51.978;5.656;2023-11-21T13:04:53;12.9;74.2
78438;SHT31;67736;51.978;5.656;2023-11-21T13:07:25;12.9;74.7
78438;SHT31;67736;51.978;5.656;2023-11-21T13:09:55;12.9;74.9
78438;SHT31;67736;51.978;5.656;2023-11-21T13:12:25;12.9;74.4
78438;SHT31;67736;51.978;5.656;2023-11-21T13:14:55;12.9;74.5
78438;SHT31;67736;51.978;5.656;2023-11-21T13:17:26;12.9;74.4
78438;SHT31;67736;51.978;5.656;2023-11-21T13:19:56;12.9;74.9
78438;SHT31;67736;51.978;5.656;2023-11-21T13:22:26;12.9;74.6
78438;SHT31;67736;51.978;5.656;2023-11-21T13:24:55;12.9;74.5
78438;SHT31;67736;51.978;5.656;2023-11-21T13:27:26;12.9;74.2
78438;SHT31;67736;51.978;5.656;2023-11-21T13:29:57;12.9;73.9
78438;SHT31;67736;51.978;5.656;2023-11-21T13:32:27;13.0;73.6
78438;SHT31;67736;51.978;5.656;2023-11-21T13:34:57;13.0;73.8
78438;SHT31;67736;51.978;5.656;2023-11-21T13:37:27;13.0;73.6
78438;SHT31;67736;51.978;5.656;2023-11-21T13:40:01;13.0;72.9
78438;SHT31;67736;51.978;5.656;2023-11-21T13:42:37;13.0;72.9
78438;SHT31;67736;51.978;5.656;2023-11-21T13:45:09;13.0;73.3
78438;SHT31;67736;51.978;5.656;2023-11-21T13:47:39;13.0;73.1
78438;SHT31;67736;51.978;5.656;2023-11-21T13:50:11;13.0;73.2
78438;SHT31;67736;51.978;5.656;2023-11-21T13:52:46;13.0;73.3
78438;SHT31;67736;51.978;5.656;2023-11-21T13:55:19;13.1;73.3
78438;SHT31;67736;51.978;5.656;2023-11-21T13:57:51;13.1;72.7
78438;SHT31;67736;51.978;5.656;2023-11-21T14:00:21;13.1;72.9
78438;SHT31;67736;51.978;5.656;2023-11-21T14:03:12;13.1;72.5
78438;SHT31;67736;51.978;5.656;2023-11-21T14:05:49;13.1;72.5
78438;SHT31;67736;51.978;5.656;2023-11-21T14:08:21;13.1;72.4
78438;SHT31;67736;51.978;5.656;2023-11-21T14:10:55;13.1;72.4
78438;SHT31;67736;51.978;5.656;2023-11-21T14:13:29;13.1;72.5
78438;SHT31;67736;51.978;5.656;2023-11-21T14:16:00;13.1;72.4
78438;SHT31;67736;51.978;5.656;2023-11-21T14:18:30;13.1;71.8
78438;SHT31;67736;51.978;5.656;2023-11-21T14:21:05;13.1;71.6
78438;SHT31;67736;51.978;5.656;2023-11-21T14:23:36;13.1;71.7
78438;SHT31;67736;51.978;5.656;2023-11-21T14:26:06;13.0;71.7
78438;SHT31;67736;51.978;5.656;2023-11-21T14:28:35;13.0;71.5
78438;SHT31;67736;51.978;5.656;2023-11-21T14:31:05;13.0;71.7
78438;SHT31;67736;51.978;5.656;2023-11-21T14:33:35;12.9;72.1
78438;SHT31;67736;51.978;5.656;2023-11-21T14:36:05;12.9;71.9
78438;SHT31;67736;51.978;5.656;2023-11-21T14:38:36;12.9;72.1
78438;SHT31;67736;51.978;5.656;2023-11-21T14:41:07;12.9;72.3
78438;SHT31;67736;51.978;5.656;2023-11-21T14:43:38;12.9;71.8
78438;SHT31;67736;51.978;5.656;2023-11-21T14:46:09;12.9;71.6
78438;SHT31;67736;51.978;5.656;2023-11-21T14:48:42;12.9;71.5
78438;SHT31;67736;51.978;5.656;2023-11-21T14:51:15;12.8;71.9
78438;SHT31;67736;51.978;5.656;2023-11-21T14:53:59;12.8;71.8
78438;SHT31;67736;51.978;5.656;2023-11-21T14:56:33;12.8;71.9
78438;SHT31;67736;51.978;5.656;2023-11-21T14:59:05;12.8;72.0
78438;SHT31;67736;51.978;5.656;2023-11-21T15:01:40;12.7;71.9
78438;SHT31;67736;51.978;5.656;2023-11-21T15:04:18;12.7;72.4
78438;SHT31;67736;51.978;5.656;2023-11-21T15:06:55;12.6;72.5
78438;SHT31;67736;51.978;5.656;2023-11-21T15:09:26;12.6;72.4
78438;SHT31;67736;51.978;5.656;2023-11-21T15:12:09;12.6;72.3
78438;SHT31;67736;51.978;5.656;2023-11-21T15:14:45;12.5;71.9
78438;SHT31;67736;51.978;5.656;2023-11-21T15:17:17;12.5;71.7
78438;SHT31;67736;51.978;5.656;2023-11-21T15:19:52;12.4;71.4
78438;SHT31;67736;51.978;5.656;2023-11-21T15:22:23;12.4;71.7
78438;SHT31;67736;51.978;5.656;2023-11-21T15:24:57;12.4;70.7
78438;SHT31;67736;51.978;5.656;2023-11-21T15:27:30;12.3;70.4
78438;SHT31;67736;51.978;5.656;2023-11-21T15:30:00;12.2;70.5
78438;SHT31;67736;51.978;5.656;2023-11-21T15:32:31;12.2;70.5
78438;SHT31;67736;51.978;5.656;2023-11-21T15:35:00;12.1;69.8
78438;SHT31;67736;51.978;5.656;2023-11-21T15:37:30;12.1;69.2
78438;SHT31;67736;51.978;5.656;2023-11-21T15:39:59;12.0;69.4
78438;SHT31;67736;51.978;5.656;2023-11-21T15:42:33;12.0;68.9
78438;SHT31;67736;51.978;5.656;2023-11-21T15:45:04;11.9;69.1
78438;SHT31;67736;51.978;5.656;2023-11-21T15:47:35;11.9;68.5
78438;SHT31;67736;51.978;5.656;2023-11-21T15:50:06;11.8;67.9
78438;SHT31;67736;51.978;5.656;2023-11-21T15:52:37;11.8;68.0
78438;SHT31;67736;51.978;5.656;2023-11-21T15:55:10;11.7;68.6
78438;SHT31;67736;51.978;5.656;2023-11-21T15:57:40;11.7;68.6
78438;SHT31;67736;51.978;5.656;2023-11-21T16:00:11;11.6;68.5
78438;SHT31;67736;51.978;5.656;2023-11-21T16:02:46;11.6;68.4
78438;SHT31;67736;51.978;5.656;2023-11-21T16:05:15;11.6;68.3
78438;SHT31;67736;51.978;5.656;2023-11-21T16:07:48;11.6;67.8
78438;SHT31;67736;51.978;5.656;2023-11-21T16:10:18;11.5;67.4
78438;SHT31;67736;51.978;5.656;2023-11-21T16:12:49;11.5;67.5
78438;SHT31;67736;51.978;5.656;2023-11-21T16:15:19;11.5;66.1
78438;SHT31;67736;51.978;5.656;2023-11-21T16:17:51;11.5;66.2
78438;SHT31;67736;51.978;5.656;2023-11-21T16:20:21;11.4;66.1
78438;SHT31;67736;51.978;5.656;2023-11-21T16:22:52;11.4;66.4
78438;SHT31;67736;51.978;5.656;2023-11-21T16:25:22;11.4;66.2
78438;SHT31;67736;51.978;5.656;2023-11-21T16:27:54;11.3;66.3